Time;durP1;ratioP1;P1;durP2;ratioP2;P2;SDS_P1;SDS_P2;PMS_P1;PMS_P2;Temp;Humidity;BMP_temperature;BMP_pressure;BME280_temperature;BME280_humidity;BME280_pressure;Samples;Min_cycle;Max_cycle;Signal;HPM_P1;HPM_P2
2021/10/06 00:01:34;;;;;;;3.67;0.43;;;;;;;19.40;41.91;99905.00;4388697;32;20479;-68
2021/10/06 00:04:00;;;;;;;3.35;0.73;;;;;;;19.07;43.05;99896.41;4384685;32;20335;-68
2021/10/06 00:06:26;;;;;;;1.70;0.45;;;;;;;18.97;42.99;99897.94;4386994;32;20022;-68
2021/10/06 00:08:52;;;;;;;3.95;0.70;;;;;;;18.48;44.20;99904.31;4387471;32;20468;-68
2021/10/06 00:11:18;;;;;;;5.50;0.80;;;;;;;19.12;42.95;99912.75;4388059;32;20027;-68
2021/10/06 00:13:44;;;;;;;6.35;0.73;;;;;;;19.14;42.79;99904.44;4388780;32;20560;-68
2021/10/06 00:16:12;;;;;;;2.78;0.28;;;;;;;19.06;42.69;99909.09;4390429;32;20384;-68
2021/10/06 00:18:40;;;;;;;6.53;0.80;;;;;;;19.07;42.58;99917.16;4388993;32;20089;-68
2021/10/06 00:21:06;;;;;;;1.83;0.55;;;;;;;19.13;42.52;99917.16;4389611;32;20043;-67
2021/10/06 00:23:32;;;;;;;8.00;0.70;;;;;;;18.89;42.77;99928.25;4389717;32;20112;-68
2021/10/06 00:26:00;;;;;;;3.20;0.37;;;;;;;18.41;43.91;99921.91;4389071;32;20050;-68
2021/10/06 00:28:27;;;;;;;6.05;0.35;;;;;;;18.91;42.70;99917.91;4390086;32;20081;-68
2021/10/06 00:30:52;;;;;;;5.95;0.50;;;;;;;18.95;42.71;99926.97;4389136;32;20068;-68
2021/10/06 00:33:19;;;;;;;1.50;0.30;;;;;;;18.79;42.92;99929.78;4390135;32;20090;-68
2021/10/06 00:35:45;;;;;;;3.78;0.50;;;;;;;19.12;42.23;99932.72;4390522;32;20104;-68
2021/10/06 00:38:11;;;;;;;5.60;0.37;;;;;;;19.45;41.55;99953.50;4390755;32;20438;-68
2021/10/06 00:40:37;;;;;;;2.53;0.22;;;;;;;19.44;41.55;99954.03;4387810;32;20086;-68
2021/10/06 00:43:02;;;;;;;3.10;0.30;;;;;;;19.74;41.04;99963.63;4390122;32;20331;-68
2021/10/06 00:45:28;;;;;;;2.83;0.43;;;;;;;19.49;41.34;99964.66;4392146;32;20502;-68
2021/10/06 00:47:55;;;;;;;2.05;0.40;;;;;;;19.43;41.31;99961.78;4389892;32;20521;-68
2021/10/06 00:50:20;;;;;;;1.87;0.25;;;;;;;19.10;41.48;99978.84;4391333;32;20105;-68
2021/10/06 00:52:46;;;;;;;3.87;0.62;;;;;;;19.46;41.13;99972.16;4388172;32;20533;-67
2021/10/06 00:55:14;;;;;;;2.42;0.20;;;;;;;19.24;41.29;99977.81;4388932;32;20072;-68
2021/10/06 00:57:41;;;;;;;1.58;0.55;;;;;;;19.72;40.65;99980.47;4388716;32;20454;-68
2021/10/06 01:00:08;;;;;;;6.12;0.60;;;;;;;19.05;41.67;99962.50;4390515;32;20078;-67
2021/10/06 01:02:33;;;;;;;1.67;0.20;;;;;;;19.07;42.21;99999.06;4390416;32;20039;-67
2021/10/06 01:04:59;;;;;;;3.22;0.40;;;;;;;19.23;41.45;100004.81;4388099;32;20069;-67
2021/10/06 01:07:26;;;;;;;2.20;0.30;;;;;;;18.74;42.44;99990.41;4388175;32;20425;-68
2021/10/06 01:09:52;;;;;;;4.70;0.47;;;;;;;18.45;42.69;100002.19;4389044;32;20074;-68
2021/10/06 01:12:19;;;;;;;0.82;0.30;;;;;;;19.09;41.63;100010.75;4391986;32;20077;-70
2021/10/06 01:14:46;;;;;;;1.20;0.30;;;;;;;18.11;43.20;100017.50;4391225;32;20045;-69
2021/10/06 01:17:12;;;;;;;1.83;0.15;;;;;;;18.72;42.06;100021.50;4389639;32;20073;-68
2021/10/06 01:19:37;;;;;;;2.35;0.37;;;;;;;18.80;41.80;100034.75;4390253;32;20072;-68
2021/10/06 01:22:03;;;;;;;2.40;0.30;;;;;;;18.73;41.77;100045.84;4388322;32;20104;-70
2021/10/06 01:24:29;;;;;;;2.92;0.40;;;;;;;18.30;42.57;100050.00;4387571;32;20482;-68
2021/10/06 01:26:57;;;;;;;1.65;0.20;;;;;;;18.83;41.73;100059.38;4388467;32;20555;-68
2021/10/06 01:29:23;;;;;;;1.55;0.32;;;;;;;18.97;41.65;100052.72;4388475;32;20428;-68
2021/10/06 01:31:50;;;;;;;2.90;0.20;;;;;;;18.44;42.07;100058.38;4387866;32;20741;-68
2021/10/06 01:34:18;;;;;;;4.50;0.30;;;;;;;18.73;41.79;100054.41;4387663;32;20431;-69
2021/10/06 01:36:48;;;;;;;1.27;0.20;;;;;;;18.80;41.68;100065.31;4389967;32;20046;-69
2021/10/06 01:39:15;;;;;;;3.25;0.30;;;;;;;18.74;41.80;100078.75;4392620;32;20082;-69
2021/10/06 01:41:43;;;;;;;7.43;0.20;;;;;;;18.59;42.18;100075.34;4386483;32;20478;-69
2021/10/06 01:44:14;;;;;;;1.62;0.20;;;;;;;18.55;41.80;100078.41;4389812;32;20088;-69
2021/10/06 01:46:39;;;;;;;2.50;0.30;;;;;;;19.08;41.13;100083.31;4388596;32;20103;-69
2021/10/06 01:49:05;;;;;;;2.90;0.73;;;;;;;18.84;41.37;100085.81;4387379;32;20082;-69
2021/10/06 01:51:31;;;;;;;0.20;0.10;;;;;;;18.49;42.03;100082.50;4388803;32;20136;-69
2021/10/06 01:53:57;;;;;;;2.70;0.30;;;;;;;18.32;42.24;100090.94;4386111;32;20098;-69
2021/10/06 01:56:23;;;;;;;1.37;0.20;;;;;;;18.26;42.37;100109.25;4386693;32;20090;-69
2021/10/06 01:58:49;;;;;;;5.00;0.65;;;;;;;18.44;42.06;100111.75;4389109;32;20431;-69
2021/10/06 02:01:16;;;;;;;0.52;0.10;;;;;;;18.57;41.83;100121.44;4387253;32;20499;-69
2021/10/06 02:03:42;;;;;;;1.25;0.20;;;;;;;18.08;42.59;100132.41;4388917;32;20076;-69
2021/10/06 02:06:08;;;;;;;1.75;0.15;;;;;;;18.74;41.57;100127.22;4389859;32;20046;-69
2021/10/06 02:08:34;;;;;;;1.83;0.20;;;;;;;18.21;42.30;100121.38;4390453;32;20042;-69
2021/10/06 02:11:00;;;;;;;2.17;0.20;;;;;;;17.73;43.17;100136.25;4390998;32;20082;-69
2021/10/06 02:13:26;;;;;;;4.15;0.40;;;;;;;17.93;42.49;100132.53;4386512;32;20108;-69
2021/10/06 02:15:52;;;;;;;0.62;0.10;;;;;;;17.99;42.47;100121.19;4385575;32;20066;-69
2021/10/06 02:18:18;;;;;;;0.80;0.10;;;;;;;17.88;42.78;100128.37;4390481;32;20128;-69
2021/10/06 02:20:44;;;;;;;1.67;0.10;;;;;;;18.04;42.21;100138.31;4387782;32;20039;-69
2021/10/06 02:23:12;;;;;;;0.52;0.20;;;;;;;18.12;42.06;100136.59;4387657;32;20086;-69
2021/10/06 02:25:38;;;;;;;0.93;0.10;;;;;;;18.34;41.71;100144.53;4390052;32;20101;-69
2021/10/06 02:28:04;;;;;;;0.90;0.10;;;;;;;18.00;42.41;100154.06;4388655;32;20486;-69
2021/10/06 02:30:30;;;;;;;0.55;0.10;;;;;;;17.85;42.58;100151.34;4389225;32;20104;-69
2021/10/06 02:32:55;;;;;;;2.35;0.13;;;;;;;17.83;42.41;100148.25;4388450;32;20043;-69
2021/10/06 02:35:21;;;;;;;3.50;0.10;;;;;;;17.93;42.09;100146.78;4389673;32;20125;-69
2021/10/06 02:37:47;;;;;;;1.37;0.10;;;;;;;18.24;41.49;100149.66;4388477;32;20106;-69
2021/10/06 02:40:16;;;;;;;2.58;0.20;;;;;;;18.20;41.66;100159.69;4386520;32;20205;-68
2021/10/06 02:42:45;;;;;;;0.93;0.25;;;;;;;18.28;41.57;100155.13;4388006;32;20108;-68
2021/10/06 02:45:13;;;;;;;1.45;0.17;;;;;;;18.38;41.38;100150.81;4387930;32;20090;-68
2021/10/06 02:47:40;;;;;;;1.27;0.10;;;;;;;18.36;41.47;100153.34;4386200;32;20133;-68
2021/10/06 02:50:08;;;;;;;0.95;0.13;;;;;;;17.83;42.27;100156.78;4390090;32;20420;-68
2021/10/06 02:52:33;;;;;;;2.05;0.30;;;;;;;17.70;42.62;100154.31;4386138;32;20166;-68
2021/10/06 02:54:59;;;;;;;2.30;1.00;;;;;;;17.91;42.17;100165.66;4385861;32;20444;-68
2021/10/06 02:57:25;;;;;;;0.40;0.10;;;;;;;17.62;42.73;100181.62;4389417;32;20078;-68
2021/10/06 02:59:51;;;;;;;1.08;0.20;;;;;;;17.66;42.82;100168.00;4387973;32;20117;-68
2021/10/06 03:02:16;;;;;;;2.25;0.10;;;;;;;17.71;42.50;100172.94;4385761;32;20086;-68
2021/10/06 03:04:42;;;;;;;0.93;0.10;;;;;;;17.30;43.25;100171.41;4387837;32;20443;-68
2021/10/06 03:07:08;;;;;;;2.47;0.40;;;;;;;17.49;42.93;100189.75;4388034;32;20104;-68
2021/10/06 03:09:34;;;;;;;1.33;0.30;;;;;;;17.05;43.51;100179.84;4389263;32;20131;-68
2021/10/06 03:11:59;;;;;;;1.80;0.10;;;;;;;17.15;43.49;100190.59;4385136;32;20038;-68
2021/10/06 03:14:25;;;;;;;2.62;0.20;;;;;;;17.24;43.34;100187.62;4389770;32;20085;-68
2021/10/06 03:16:50;;;;;;;0.88;0.10;;;;;;;16.99;43.77;100194.00;4386521;32;20574;-68
2021/10/06 03:19:16;;;;;;;2.45;0.10;;;;;;;17.19;43.54;100205.41;4387895;32;20078;-68
2021/10/06 03:21:42;;;;;;;0.75;0.20;;;;;;;17.56;42.72;100212.12;4387517;32;20491;-69
2021/10/06 03:24:09;;;;;;;0.75;0.10;;;;;;;17.98;41.86;100210.75;4386689;32;20108;-69
2021/10/06 03:26:35;;;;;;;3.12;0.43;;;;;;;18.07;41.67;100214.19;4387640;32;20048;-69
2021/10/06 03:29:01;;;;;;;1.65;0.20;;;;;;;18.04;41.40;100222.97;4388960;32;20132;-69
2021/10/06 03:31:27;;;;;;;2.30;0.22;;;;;;;18.30;nan;100238.78;4386530;32;20070;-69
2021/10/06 03:33:52;;;;;;;0.70;0.17;;;;;;;17.99;41.64;100238.72;4385348;32;20030;-69
2021/10/06 03:36:18;;;;;;;1.15;0.10;;;;;;;18.15;41.17;100243.00;4390232;32;20070;-69
2021/10/06 03:38:44;;;;;;;1.23;0.50;;;;;;;18.18;41.05;100247.72;4387939;32;20023;-69
2021/10/06 03:41:10;;;;;;;1.70;0.17;;;;;;;18.23;41.00;100241.28;4386709;32;21024;-69
2021/10/06 03:43:36;;;;;;;2.00;0.20;;;;;;;18.03;41.26;100247.81;4386279;32;20103;-69
2021/10/06 03:46:02;;;;;;;7.32;0.22;;;;;;;18.11;41.36;100251.00;4388259;32;20027;-69
2021/10/06 03:48:28;;;;;;;0.30;0.10;;;;;;;18.14;40.97;100264.25;4387259;32;20061;-69
2021/10/06 03:50:53;;;;;;;6.37;0.40;;;;;;;18.16;41.12;100258.84;4389236;32;20424;-69
2021/10/06 03:53:19;;;;;;;2.00;0.20;;;;;;;18.01;41.38;100272.38;4387403;32;20084;-69
2021/10/06 03:55:46;;;;;;;1.55;0.35;;;;;;;17.99;41.43;100283.47;4385842;32;20027;-69
2021/10/06 03:58:12;;;;;;;1.73;0.30;;;;;;;18.34;40.72;100286.97;4385871;32;20161;-69
2021/10/06 04:00:37;;;;;;;2.55;0.10;;;;;;;18.19;41.10;100287.06;4388535;32;20168;-69
2021/10/06 04:03:12;;;;;;;2.72;0.10;;;;;;;18.16;40.82;100305.16;4387576;32;20529;-69
2021/10/06 04:05:38;;;;;;;2.37;0.10;;;;;;;18.55;40.46;100309.25;4385690;32;20391;-69
2021/10/06 04:08:05;;;;;;;0.70;0.20;;;;;;;18.43;40.71;100310.41;4386647;32;20049;-69
2021/10/06 04:10:32;;;;;;;0.75;0.10;;;;;;;18.19;41.22;100309.09;4386834;32;20431;-69
2021/10/06 04:12:58;;;;;;;3.47;0.35;;;;;;;17.87;41.71;100319.59;4389046;32;20507;-69
2021/10/06 04:15:23;;;;;;;0.25;0.10;;;;;;;18.16;41.30;100312.94;4389935;32;21164;-69
2021/10/06 04:17:49;;;;;;;0.57;0.00;;;;;;;18.37;40.54;100326.66;4385513;32;20100;-69
2021/10/06 04:20:17;;;;;;;1.85;0.30;;;;;;;18.07;40.94;100336.66;4385722;32;20054;-69
2021/10/06 04:22:44;;;;;;;1.80;0.20;;;;;;;18.48;40.21;100326.78;4386063;32;20121;-69
2021/10/06 04:25:10;;;;;;;3.30;0.40;;;;;;;18.16;40.63;100325.09;4387432;32;20087;-69
2021/10/06 04:27:36;;;;;;;1.37;0.37;;;;;;;18.10;40.86;100341.34;4386922;32;20031;-69
2021/10/06 04:30:05;;;;;;;1.65;0.17;;;;;;;18.15;40.80;100345.53;4388350;32;20067;-69
2021/10/06 04:32:31;;;;;;;0.57;0.17;;;;;;;18.36;40.49;100344.22;4383323;32;20476;-69
2021/10/06 04:34:56;;;;;;;2.22;0.20;;;;;;;18.08;40.68;100354.53;4386649;32;20077;-70
2021/10/06 04:37:22;;;;;;;1.00;0.13;;;;;;;18.41;40.11;100366.34;4386725;32;20114;-68
2021/10/06 04:39:47;;;;;;;0.90;0.20;;;;;;;18.32;40.15;100366.47;4387504;32;20108;-68
2021/10/06 04:42:13;;;;;;;4.22;0.30;;;;;;;18.08;40.03;100371.59;4387911;32;20065;-70
2021/10/06 04:44:39;;;;;;;0.35;0.10;;;;;;;18.18;40.28;100376.66;4388057;32;20078;-69
2021/10/06 04:47:04;;;;;;;4.07;0.30;;;;;;;17.97;40.54;100383.63;4385031;32;20076;-69
2021/10/06 04:49:30;;;;;;;2.17;0.80;;;;;;;17.91;40.66;100384.88;4387934;32;20038;-69
2021/10/06 04:51:56;;;;;;;1.35;0.10;;;;;;;17.91;40.69;100396.25;4388083;32;20508;-69
2021/10/06 04:54:21;;;;;;;1.65;0.13;;;;;;;17.99;40.32;100400.22;4385766;32;20086;-70
2021/10/06 04:56:47;;;;;;;0.70;0.20;;;;;;;18.20;40.41;100401.78;4391367;32;20069;-70
2021/10/06 04:59:12;;;;;;;0.60;0.17;;;;;;;18.44;39.83;100408.06;4386778;32;20038;-70
2021/10/06 05:01:38;;;;;;;0.93;0.10;;;;;;;18.25;39.76;100421.03;4391108;32;20038;-70
2021/10/06 05:04:04;;;;;;;1.20;0.17;;;;;;;18.09;40.29;100416.66;4388879;32;20078;-69
2021/10/06 05:06:29;;;;;;;0.90;0.20;;;;;;;18.09;40.28;100419.53;4389585;32;20072;-70
2021/10/06 05:08:57;;;;;;;2.95;0.20;;;;;;;18.10;40.10;100418.22;4390703;32;20074;-69
2021/10/06 05:11:23;;;;;;;2.40;0.20;;;;;;;18.16;40.12;100429.72;4387933;32;20088;-69
2021/10/06 05:13:49;;;;;;;1.02;0.40;;;;;;;18.16;40.09;100436.19;4391029;32;20252;-69
2021/10/06 05:16:15;;;;;;;0.85;0.45;;;;;;;18.19;40.20;100437.25;4386625;32;20421;-69
2021/10/06 05:18:41;;;;;;;0.95;0.30;;;;;;;18.32;39.90;100447.03;4390255;32;20085;-69
2021/10/06 05:21:07;;;;;;;1.33;0.10;;;;;;;17.99;40.37;100448.62;4387958;32;20067;-69
2021/10/06 05:23:33;;;;;;;0.70;0.17;;;;;;;17.42;41.54;100454.72;4386995;32;20415;-69
2021/10/06 05:25:58;;;;;;;2.05;0.10;;;;;;;17.82;40.91;100456.91;4389037;32;20080;-69
2021/10/06 05:28:24;;;;;;;2.53;0.50;;;;;;;17.60;41.43;100457.37;4392944;32;20062;-69
2021/10/06 05:30:50;;;;;;;2.78;0.35;;;;;;;17.89;40.70;100467.91;4390813;32;20058;-69
2021/10/06 05:33:16;;;;;;;1.67;0.20;;;;;;;17.66;41.28;100474.53;4385435;32;20043;-69
2021/10/06 05:35:41;;;;;;;2.90;0.32;;;;;;;17.97;40.44;100473.97;4390195;32;20086;-69
2021/10/06 05:38:08;;;;;;;1.55;0.90;;;;;;;18.07;40.60;100476.19;4390110;32;20070;-69
2021/10/06 05:40:34;;;;;;;2.60;0.20;;;;;;;17.70;41.33;100490.12;4387859;32;20333;-69
2021/10/06 05:43:00;;;;;;;2.70;0.20;;;;;;;17.76;40.95;100491.00;4387851;32;20293;-70
2021/10/06 05:45:26;;;;;;;0.57;0.20;;;;;;;17.59;41.26;100504.19;4387266;32;20070;-69
2021/10/06 05:47:51;;;;;;;1.23;0.20;;;;;;;17.64;41.28;100517.72;4389613;32;20127;-69
2021/10/06 05:50:17;;;;;;;2.10;0.20;;;;;;;17.66;41.48;100515.16;4388042;32;21425;-69
2021/10/06 05:52:43;;;;;;;1.08;0.17;;;;;;;17.65;41.40;100513.59;4388490;32;21253;-69
2021/10/06 05:55:10;;;;;;;1.23;0.30;;;;;;;17.87;41.17;100522.50;4390415;32;20095;-69
2021/10/06 05:57:36;;;;;;;0.90;0.10;;;;;;;17.74;41.32;100524.09;4392007;32;20034;-69
2021/10/06 06:00:04;;;;;;;4.57;0.37;;;;;;;17.74;41.33;100527.72;4388577;32;20088;-69
2021/10/06 06:02:30;;;;;;;4.90;0.30;;;;;;;17.96;40.89;100518.75;4387141;32;20478;-69
2021/10/06 06:04:56;;;;;;;2.10;0.20;;;;;;;17.67;41.39;100535.84;4387197;32;20061;-69
2021/10/06 06:07:21;;;;;;;1.12;0.20;;;;;;;17.50;41.48;100534.81;4389461;32;20066;-69
2021/10/06 06:09:48;;;;;;;0.22;0.10;;;;;;;17.18;42.22;100532.91;4389075;32;20133;-69
2021/10/06 06:12:13;;;;;;;1.25;0.20;;;;;;;17.27;42.38;100544.97;4388543;32;20078;-69
2021/10/06 06:14:40;;;;;;;4.95;0.22;;;;;;;17.15;42.43;100560.25;4387873;32;20640;-69
2021/10/06 06:17:10;;;;;;;0.30;0.10;;;;;;;17.39;42.39;100557.31;4389082;32;20070;-69
2021/10/06 06:19:35;;;;;;;0.45;0.20;;;;;;;17.32;42.22;100577.62;4387962;32;20050;-69
2021/10/06 06:22:01;;;;;;;0.88;0.30;;;;;;;17.21;42.17;100580.28;4386889;32;20490;-69
2021/10/06 06:24:28;;;;;;;3.25;0.22;;;;;;;17.86;41.20;100568.53;4386830;32;20424;-69
2021/10/06 06:26:54;;;;;;;1.12;0.10;;;;;;;17.26;42.20;100574.69;4392756;32;20469;-69
2021/10/06 06:29:21;;;;;;;1.42;0.20;;;;;;;17.01;42.70;100569.56;4387478;32;20123;-69
2021/10/06 06:31:47;;;;;;;1.98;0.30;;;;;;;17.64;41.52;100574.62;4388592;32;20037;-68
2021/10/06 06:34:14;;;;;;;0.98;0.20;;;;;;;17.55;41.63;100591.81;4383768;32;20452;-69
2021/10/06 06:36:39;;;;;;;2.28;0.20;;;;;;;17.17;42.43;100593.88;4391544;32;20120;-69
2021/10/06 06:39:05;;;;;;;2.78;0.28;;;;;;;17.40;42.00;100599.50;4387775;32;20104;-69
2021/10/06 06:41:31;;;;;;;0.95;0.35;;;;;;;17.55;41.87;100599.56;4386282;32;20086;-69
2021/10/06 06:43:58;;;;;;;3.03;0.20;;;;;;;17.81;41.29;100597.69;4383995;32;20022;-69
2021/10/06 06:46:24;;;;;;;3.85;0.28;;;;;;;17.55;41.61;100591.81;4383810;32;20458;-69
2021/10/06 06:48:49;;;;;;;0.90;0.20;;;;;;;17.29;42.04;100607.84;4381530;32;20098;-69
2021/10/06 06:51:15;;;;;;;1.83;0.35;;;;;;;17.12;42.58;100603.88;4379062;32;20726;-69
2021/10/06 06:53:41;;;;;;;1.23;0.45;;;;;;;17.67;41.52;100604.97;4379581;32;20097;-69
2021/10/06 06:56:07;;;;;;;1.35;0.40;;;;;;;17.78;41.07;100610.84;4379078;32;20069;-69
2021/10/06 06:58:33;;;;;;;1.25;0.20;;;;;;;17.48;41.57;100617.00;4377383;32;20081;-69
2021/10/06 07:00:59;;;;;;;0.47;0.13;;;;;;;17.66;41.61;100623.31;4381912;32;20031;-69
2021/10/06 07:03:25;;;;;;;0.85;0.10;;;;;;;17.77;41.33;100625.59;4378945;32;20457;-69
2021/10/06 07:05:51;;;;;;;2.15;0.32;;;;;;;17.95;41.12;100624.59;4375122;32;20243;-69
2021/10/06 07:08:16;;;;;;;2.67;0.50;;;;;;;17.95;40.87;100628.22;4379774;32;20496;-69
2021/10/06 07:10:42;;;;;;;1.48;0.17;;;;;;;18.22;40.51;100639.28;4382756;32;20228;-69
2021/10/06 07:13:09;;;;;;;1.30;0.35;;;;;;;18.30;40.23;100636.81;4375879;32;20104;-70
2021/10/06 07:15:35;;;;;;;1.33;0.30;;;;;;;18.22;40.46;100636.41;4378848;32;20632;-69
2021/10/06 07:18:02;;;;;;;4.50;0.57;;;;;;;18.25;40.64;100638.28;4380670;32;20089;-69
2021/10/06 07:20:28;;;;;;;3.97;0.70;;;;;;;18.69;39.73;100639.00;4380489;32;20529;-69
2021/10/06 07:22:54;;;;;;;2.97;0.30;;;;;;;18.69;39.77;100649.63;4376423;32;20135;-69
2021/10/06 07:25:19;;;;;;;1.90;0.20;;;;;;;18.92;39.36;100654.31;4378939;32;20176;-69
2021/10/06 07:27:45;;;;;;;2.65;0.20;;;;;;;18.81;38.91;100654.19;4375968;32;20096;-70
2021/10/06 07:30:11;;;;;;;2.42;0.20;;;;;;;19.03;39.02;100660.19;4378498;32;20236;-70
2021/10/06 07:32:37;;;;;;;1.95;0.22;;;;;;;18.90;39.25;100665.47;4381760;32;20042;-70
2021/10/06 07:35:04;;;;;;;0.80;0.22;;;;;;;18.85;39.29;100658.41;4381142;32;20073;-71
2021/10/06 07:37:30;;;;;;;1.90;0.37;;;;;;;19.00;39.14;100675.44;4377927;32;20716;-70
2021/10/06 07:39:56;;;;;;;3.33;0.25;;;;;;;19.24;38.66;100687.44;4378799;32;20066;-69
2021/10/06 07:42:22;;;;;;;2.87;0.30;;;;;;;19.10;38.93;100682.56;4380022;32;21456;-69
2021/10/06 07:44:48;;;;;;;2.60;0.30;;;;;;;19.47;38.37;100675.81;4377638;32;20070;-69
2021/10/06 07:47:14;;;;;;;1.70;0.40;;;;;;;19.39;38.49;100691.81;4379011;32;20591;-69
2021/10/06 07:49:40;;;;;;;0.80;0.20;;;;;;;19.57;38.34;100685.00;4378704;32;20082;-70
2021/10/06 07:52:07;;;;;;;3.40;0.30;;;;;;;19.61;38.29;100691.28;4369128;32;20251;-71
2021/10/06 07:54:33;;;;;;;1.92;0.40;;;;;;;19.75;38.20;100696.09;4367711;32;20440;-71
2021/10/06 07:56:59;;;;;;;3.05;0.77;;;;;;;20.13;37.39;100709.25;4372023;32;21461;-70
2021/10/06 07:59:25;;;;;;;3.47;0.57;;;;;;;20.21;37.49;100722.56;4370673;32;20077;-71
2021/10/06 08:01:50;;;;;;;4.05;0.20;;;;;;;20.34;37.10;100731.53;4370961;32;20100;-71
2021/10/06 08:04:16;;;;;;;0.52;0.13;;;;;;;20.16;37.50;100731.91;4366708;32;20104;-70
2021/10/06 08:06:42;;;;;;;0.88;0.50;;;;;;;20.68;36.48;100733.34;4374627;32;20078;-69
2021/10/06 08:09:08;;;;;;;0.75;0.30;;;;;;;21.08;35.91;100738.87;4372668;32;20918;-69
2021/10/06 08:11:35;;;;;;;1.30;0.40;;;;;;;21.27;35.55;100747.81;4379831;32;20076;-69
2021/10/06 08:14:02;;;;;;;1.62;0.10;;;;;;;21.42;35.22;100752.06;4375172;32;20492;-69
2021/10/06 08:16:27;;;;;;;2.45;0.30;;;;;;;21.69;34.65;100751.41;4378850;32;20057;-69
2021/10/06 08:18:53;;;;;;;0.60;0.40;;;;;;;21.66;34.31;100748.78;4379780;32;20039;-69
2021/10/06 08:21:19;;;;;;;1.60;0.57;;;;;;;22.06;34.32;100761.97;4377178;32;20422;-70
2021/10/06 08:23:45;;;;;;;1.92;0.20;;;;;;;21.76;34.31;100757.97;4366258;32;20079;-71
2021/10/06 08:26:11;;;;;;;0.70;0.30;;;;;;;22.75;33.12;100763.88;4381741;32;20783;-69
2021/10/06 08:28:37;;;;;;;3.50;0.30;;;;;;;22.79;32.93;100755.78;4381016;32;20463;-69
2021/10/06 08:31:03;;;;;;;0.75;0.20;;;;;;;22.79;33.17;100758.66;4376777;32;20097;-69
2021/10/06 08:33:29;;;;;;;0.98;0.20;;;;;;;22.96;33.07;100753.69;4369419;32;20098;-69
2021/10/06 08:35:55;;;;;;;2.33;0.30;;;;;;;22.87;32.82;100759.69;4382053;32;20139;-69
2021/10/06 08:38:21;;;;;;;0.88;0.28;;;;;;;23.39;32.58;100760.66;4378127;32;20066;-70
2021/10/06 08:40:47;;;;;;;4.28;0.40;;;;;;;23.74;31.64;100769.41;4381002;32;20042;-71
2021/10/06 08:43:12;;;;;;;1.17;0.10;;;;;;;23.74;31.70;100775.16;4383621;32;20131;-70
2021/10/06 08:45:39;;;;;;;2.17;0.20;;;;;;;23.53;31.86;100788.28;4382334;32;20100;-71
2021/10/06 08:48:07;;;;;;;1.55;0.30;;;;;;;23.59;31.85;100791.91;4383882;32;20101;-70
2021/10/06 08:50:35;;;;;;;1.08;0.20;;;;;;;23.69;31.90;100801.84;4381194;32;20027;-70
2021/10/06 08:53:01;;;;;;;1.60;0.30;;;;;;;23.17;32.52;100806.63;4378641;32;20094;-70
2021/10/06 08:55:28;;;;;;;2.67;0.40;;;;;;;23.34;32.56;100799.59;4381323;32;21270;-70
2021/10/06 08:57:57;;;;;;;2.15;0.28;;;;;;;23.73;32.27;100813.03;4382581;32;20058;-70
2021/10/06 09:00:23;;;;;;;1.12;0.40;;;;;;;23.75;32.27;100810.44;4382935;32;20034;-70
2021/10/06 09:02:48;;;;;;;4.03;0.55;;;;;;;24.05;31.63;100812.12;4375486;32;20205;-70
2021/10/06 09:05:14;;;;;;;3.35;0.30;;;;;;;24.40;30.97;100820.84;4377315;32;20116;-70
2021/10/06 09:08:01;;;;;;;5.28;0.35;;;;;;;24.25;30.80;100825.38;4372316;32;20416;-71
2021/10/06 09:10:31;;;;;;;1.02;0.22;;;;;;;24.29;30.93;100828.72;4380909;32;20501;-71
2021/10/06 09:15:46;;;;;;;2.33;0.88;;;;;;;25.48;29.64;100824.66;3985187;31;15131223;-71
2021/10/06 09:18:15;;;;;;;1.05;0.30;;;;;;;25.43;29.18;100837.03;4444374;32;20603;-72
2021/10/06 09:20:41;;;;;;;0.20;0.10;;;;;;;25.24;29.89;100830.37;4447235;32;20538;-72
2021/10/06 09:23:10;;;;;;;2.87;0.30;;;;;;;25.70;29.52;100832.28;4441956;32;20088;-70
2021/10/06 09:28:31;;;;;;;0.37;0.30;;;;;;;26.95;27.87;100860.75;3963830;32;15023842;-69
2021/10/06 09:31:01;;;;;;;0.93;0.40;;;;;;;26.95;27.87;100860.75;4414329;32;20065;-69
2021/10/06 09:33:38;;;;;;;1.80;0.43;;;;;;;27.12;27.58;100861.25;4411857;32;20045;-69
2021/10/06 09:36:10;;;;;;;1.40;0.20;;;;;;;27.01;27.63;100866.44;4412162;32;20446;-68
2021/10/06 09:38:54;;;;;;;0.77;0.20;;;;;;;27.53;26.68;100878.16;4415000;32;20476;-69
2021/10/06 09:41:45;;;;;;;0.68;0.25;;;;;;;27.66;26.35;100881.06;4411473;32;20104;-68
2021/10/06 09:44:19;;;;;;;4.68;0.40;;;;;;;27.09;27.24;100878.91;4412959;32;20427;-68
2021/10/06 09:52:20;;;;;;;1.45;0.40;;;;;;;27.25;27.08;100891.53;3960342;32;15024851;-70
2021/10/06 09:54:52;;;;;;;1.65;0.30;;;;;;;27.57;26.42;100893.06;4413256;32;20114;-70
2021/10/06 10:00:04;;;;;;;2.25;0.40;;;;;;;26.80;27.21;100898.00;3973381;32;15023344;-69
2021/10/06 10:02:31;;;;;;;0.52;0.20;;;;;;;26.80;27.21;100898.00;4422371;32;20452;-69
2021/10/06 10:04:57;;;;;;;1.73;0.40;;;;;;;26.74;26.99;100908.06;4420964;32;20101;-69
2021/10/06 10:07:25;;;;;;;0.50;0.20;;;;;;;27.50;26.44;100916.06;4424319;32;21011;-69
2021/10/06 10:09:52;;;;;;;0.47;0.20;;;;;;;28.05;25.64;100923.72;4425558;32;20127;-69
2021/10/06 10:12:21;;;;;;;1.40;0.30;;;;;;;27.61;26.45;100922.41;4423529;32;20565;-69
2021/10/06 10:14:48;;;;;;;0.65;0.28;;;;;;;28.05;26.05;100927.41;4422276;32;20129;-69
2021/10/06 10:17:15;;;;;;;0.93;0.35;;;;;;;28.31;25.38;100924.50;4422244;32;20077;-68
2021/10/06 10:19:43;;;;;;;1.45;0.50;;;;;;;28.97;24.89;100931.69;4423093;32;20080;-68
2021/10/06 10:22:11;;;;;;;1.73;0.37;;;;;;;29.17;24.29;100938.91;4423018;32;20089;-68
2021/10/06 10:24:46;;;;;;;3.78;0.35;;;;;;;29.51;23.78;100935.97;4423007;32;20120;-68
2021/10/06 10:27:14;;;;;;;1.60;0.40;;;;;;;29.88;23.55;100939.19;4421980;32;20781;-68
2021/10/06 10:29:47;;;;;;;0.85;0.30;;;;;;;29.83;22.92;100937.22;4425330;32;20136;-68
2021/10/06 10:32:16;;;;;;;1.80;0.60;;;;;;;29.38;23.37;100945.50;4420639;32;20077;-68
2021/10/06 10:40:42;;;;;;;0.73;0.30;;;;;;;28.49;24.15;100955.47;3931709;32;15027078;-68
2021/10/06 10:48:23;;;;;;;1.15;0.30;;;;;;;28.17;24.79;100968.47;3950604;32;15022349;-70
2021/10/06 10:59:11;;;;;;;1.20;0.30;;;;;;;26.93;25.72;100972.37;3956802;32;15024682;-69
2021/10/06 11:01:40;;;;;;;1.85;0.80;;;;;;;26.93;25.72;100972.37;4403133;32;20742;-69
2021/10/06 11:04:11;;;;;;;0.80;0.40;;;;;;;26.45;26.34;100970.38;4406934;32;20913;-69
2021/10/06 11:06:38;;;;;;;3.55;0.70;;;;;;;26.43;26.51;100978.00;4406933;32;20065;-69
2021/10/06 11:14:43;;;;;;;1.55;0.43;;;;;;;27.49;25.02;101004.91;3971983;32;15028226;-69
2021/10/06 11:17:11;;;;;;;2.92;0.60;;;;;;;27.46;25.40;101003.13;4425349;32;20072;-69
2021/10/06 11:27:46;;;;;;;1.37;0.40;;;;;;;29.39;23.64;101010.09;3974234;32;15023111;-68
2021/10/06 11:30:14;;;;;;;1.45;0.50;;;;;;;29.39;23.64;101010.09;4423847;32;20085;-69
2021/10/06 11:32:45;;;;;;;0.80;0.30;;;;;;;27.80;24.49;101026.47;4420466;32;20498;-70
2021/10/06 11:35:11;;;;;;;4.85;0.50;;;;;;;28.63;24.09;101012.00;4420987;32;20063;-69
2021/10/06 11:37:37;;;;;;;4.60;0.50;;;;;;;27.92;24.49;101014.16;4425693;32;20182;-69
2021/10/06 11:40:10;;;;;;;1.40;0.60;;;;;;;29.59;22.89;101015.09;4421639;32;20095;-69
2021/10/06 11:42:35;;;;;;;4.87;0.80;;;;;;;30.59;21.97;101014.03;4423146;32;20041;-69
2021/10/06 11:45:01;;;;;;;7.93;0.70;;;;;;;31.00;20.84;101033.41;4421233;32;20037;-71
2021/10/06 11:47:27;;;;;;;2.62;0.32;;;;;;;30.99;20.60;101023.16;4419304;32;20069;-72
2021/10/06 11:49:52;;;;;;;2.58;0.40;;;;;;;29.80;21.55;101015.91;4423481;32;20711;-72
2021/10/06 11:52:19;;;;;;;6.43;0.80;;;;;;;30.59;21.13;101026.41;4419075;32;20493;-71
2021/10/06 11:54:46;;;;;;;1.08;0.32;;;;;;;31.11;21.27;101030.19;4423023;32;20065;-71
2021/10/06 11:57:13;;;;;;;1.85;0.30;;;;;;;30.75;20.67;101028.09;4422900;32;20085;-72
2021/10/06 11:59:43;;;;;;;2.12;0.50;;;;;;;29.70;21.40;101032.28;4422885;32;20081;-70
2021/10/06 12:02:12;;;;;;;1.73;0.40;;;;;;;29.33;21.39;101036.31;4420802;32;20305;-70
2021/10/06 12:04:40;;;;;;;1.33;0.40;;;;;;;29.27;22.01;101044.38;4419707;32;20078;-70
2021/10/06 12:07:12;;;;;;;1.00;0.20;;;;;;;29.83;21.38;101047.50;4421130;32;20079;-70
2021/10/06 12:09:45;;;;;;;1.65;0.40;;;;;;;29.83;21.44;101043.81;4422401;32;20030;-70